Time;durP1;ratioP1;P1;durP2;ratioP2;P2;SDS_P1;SDS_P2;PMS_P1;PMS_P2;Temp;Humidity;BMP_temperature;BMP_pressure;BME280_temperature;BME280_humidity;BME280_pressure;Samples;Min_cycle;Max_cycle;Signal;HPM_P1;HPM_P2
2021/01/19 00:00:07;;;;;;;5.18;4.28;;;-1.40;94.80;;;;;;6372954;27;20023;-76
2021/01/19 00:03:08;;;;;;;6.22;3.40;;;-1.30;94.80;;;;;;6372913;27;20019;-75
2021/01/19 00:06:08;;;;;;;8.30;3.35;;;-1.50;99.90;;;;;;6373005;27;20046;-77
2021/01/19 00:09:09;;;;;;;4.55;3.72;;;-1.50;93.80;;;;;;6372942;27;20030;-76
2021/01/19 00:12:10;;;;;;;4.82;3.47;;;-1.40;94.50;;;;;;6372910;27;20041;-76
2021/01/19 00:15:11;;;;;;;5.40;3.35;;;0.00;95.20;;;;;;6372876;27;20015;-76
2021/01/19 00:18:12;;;;;;;6.40;3.22;;;-1.50;94.40;;;;;;6372937;28;20046;-75
2021/01/19 00:21:13;;;;;;;4.65;3.33;;;;;;;;;;6372819;27;20032;-75
2021/01/19 00:24:13;;;;;;;7.47;3.80;;;-1.50;98.20;;;;;;6372461;28;20023;-77
2021/01/19 00:27:14;;;;;;;5.85;3.40;;;-1.60;94.60;;;;;;6372663;27;20015;-76
2021/01/19 00:30:15;;;;;;;8.48;3.53;;;-1.60;93.40;;;;;;6372496;27;20460;-75
2021/01/19 00:33:15;;;;;;;5.13;3.67;;;-1.70;93.80;;;;;;6372409;28;20043;-75
2021/01/19 00:36:16;;;;;;;5.93;3.90;;;0.30;94.20;;;;;;6372488;27;20023;-76
2021/01/19 00:39:17;;;;;;;6.95;4.05;;;-1.50;95.30;;;;;;6372619;28;20023;-76
2021/01/19 00:42:17;;;;;;;5.32;4.13;;;-2.00;95.30;;;;;;6372388;28;20031;-75
2021/01/19 00:45:18;;;;;;;5.25;3.60;;;-2.10;95.00;;;;;;6372619;28;20769;-75
2021/01/19 00:48:18;;;;;;;4.13;3.33;;;-0.10;96.20;;;;;;6372368;28;20023;-76
2021/01/19 00:51:19;;;;;;;5.57;3.58;;;-2.10;93.50;;;;;;6372210;28;20129;-77
2021/01/19 00:54:20;;;;;;;7.60;3.60;;;-1.90;94.10;;;;;;6372340;28;20037;-75
2021/01/19 00:57:20;;;;;;;6.03;3.42;;;-2.30;99.90;;;;;;6372672;28;20030;-75
2021/01/19 01:00:21;;;;;;;5.65;3.28;;;-1.20;94.40;;;;;;6372238;28;20106;-75
2021/01/19 01:03:22;;;;;;;4.90;3.78;;;-2.00;95.30;;;;;;6372414;27;20035;-75
2021/01/19 01:06:22;;;;;;;5.13;3.25;;;0.20;95.70;;;;;;6377243;27;20094;-75
2021/01/19 01:09:23;;;;;;;6.45;3.65;;;-1.90;99.90;;;;;;6376837;27;20094;-76
2021/01/19 01:12:24;;;;;;;5.57;3.50;;;-2.00;99.90;;;;;;6376769;27;20377;-77
2021/01/19 01:15:33;;;;;;;5.47;3.78;;;-1.80;95.00;;;;;;6376799;27;20030;-76
2021/01/19 01:18:34;;;;;;;5.50;3.80;;;-1.70;94.40;;;;;;6377000;27;20103;-77
2021/01/19 01:21:36;;;;;;;4.95;3.60;;;-2.60;94.40;;;;;;6377108;27;20398;-76
2021/01/19 01:24:37;;;;;;;4.53;3.42;;;-1.80;95.30;;;;;;6376592;27;20453;-77
2021/01/19 01:27:38;;;;;;;6.63;3.78;;;-2.30;94.20;;;;;;6376387;27;20071;-75
2021/01/19 01:30:39;;;;;;;4.35;3.50;;;-1.00;95.20;;;;;;6376451;27;20034;-75
2021/01/19 01:33:39;;;;;;;8.07;4.30;;;-0.40;95.40;;;;;;6376456;27;20023;-76
2021/01/19 01:36:40;;;;;;;5.80;4.18;;;-2.10;95.00;;;;;;6376263;27;20045;-75
2021/01/19 01:39:41;;;;;;;6.82;3.95;;;-2.10;95.10;;;;;;6376376;27;20472;-75
2021/01/19 01:42:41;;;;;;;4.63;3.50;;;-1.50;94.00;;;;;;6376044;27;20031;-75
2021/01/19 01:45:42;;;;;;;6.45;3.80;;;-2.10;93.90;;;;;;6376384;27;20026;-76
2021/01/19 01:48:44;;;;;;;5.85;3.67;;;-2.30;99.90;;;;;;6376145;27;20482;-75
2021/01/19 01:51:44;;;;;;;7.30;3.70;;;0.30;99.90;;;;;;6375888;27;20152;-75
2021/01/19 01:54:46;;;;;;;6.50;4.07;;;-2.40;94.20;;;;;;6376046;27;20019;-76
2021/01/19 01:57:47;;;;;;;6.15;3.75;;;-2.40;94.00;;;;;;6357348;27;20063;-76
2021/01/19 02:00:49;;;;;;;5.95;3.53;;;-1.50;95.10;;;;;;6340553;27;20019;-76
2021/01/19 02:03:50;;;;;;;6.88;4.22;;;-2.30;99.90;;;;;;6375602;27;20015;-75
2021/01/19 02:06:51;;;;;;;5.40;3.70;;;-1.00;94.80;;;;;;6375720;27;20015;-75
2021/01/19 02:10:22;;;;;;;6.32;3.60;;;-1.30;94.80;;;;;;6357063;27;20058;-75
2021/01/19 02:13:55;;;;;;;5.18;3.22;;;-2.30;92.90;;;;;;6342201;27;20123;-76
2021/01/19 02:16:55;;;;;;;5.80;4.00;;;-2.30;93.00;;;;;;6317982;27;20524;-75
2021/01/19 02:20:14;;;;;;;4.85;3.45;;;-0.60;94.10;;;;;;6375310;27;20019;-76
2021/01/19 02:23:22;;;;;;;3.95;3.20;;;-2.30;92.10;;;;;;6375510;27;20069;-75
2021/01/19 02:26:30;;;;;;;13.57;3.70;;;-1.20;93.80;;;;;;6374984;27;20111;-75
2021/01/19 02:29:49;;;;;;;7.25;3.70;;;-2.40;99.90;;;;;;6356648;27;20030;-77
2021/01/19 02:33:03;;;;;;;4.85;3.53;;;-2.40;91.60;;;;;;6374734;27;20034;-75
2021/01/19 02:36:16;;;;;;;5.97;3.40;;;-2.40;92.60;;;;;;6358162;27;20098;-75
2021/01/19 02:39:22;;;;;;;;;;;-2.50;92.20;;;;;;6375120;27;20331;-76
2021/01/19 02:42:24;;;;;;;5.20;3.53;;;-2.40;92.20;;;;;;6375200;27;19899;-75
2021/01/19 02:45:25;;;;;;;7.18;3.30;;;;;;;;;;6339384;27;20068;-76
2021/01/19 02:48:26;;;;;;;6.10;3.63;;;-2.50;91.90;;;;;;6374623;27;20047;-76
2021/01/19 02:51:27;;;;;;;5.20;3.30;;;-2.00;93.80;;;;;;6374395;27;20039;-75
2021/01/19 02:54:28;;;;;;;7.15;3.10;;;-0.50;93.90;;;;;;6355990;27;20058;-75
2021/01/19 02:57:38;;;;;;;5.50;3.10;;;-2.50;93.00;;;;;;6339117;27;20025;-75
2021/01/19 03:00:53;;;;;;;9.07;3.95;;;-2.70;93.80;;;;;;6374144;27;20499;-75
2021/01/19 03:03:53;;;;;;;7.28;3.78;;;-2.80;92.70;;;;;;6374099;27;20125;-75
2021/01/19 03:06:54;;;;;;;6.07;3.10;;;-1.30;94.80;;;;;;6355992;27;20030;-75
2021/01/19 03:09:56;;;;;;;4.10;3.35;;;-2.70;93.50;;;;;;6338736;27;20019;-75
2021/01/19 03:12:57;;;;;;;4.28;3.25;;;-2.50;94.00;;;;;;6373728;27;20426;-75
2021/01/19 03:16:07;;;;;;;5.88;3.90;;;-2.70;99.90;;;;;;6338659;27;20062;-76
2021/01/19 03:19:08;;;;;;;4.82;4.13;;;-2.70;93.00;;;;;;6373775;27;20042;-74
2021/01/19 03:22:09;;;;;;;8.73;3.83;;;-2.90;95.10;;;;;;6373894;27;20023;-75
2021/01/19 03:25:10;;;;;;;5.07;3.38;;;-2.90;94.70;;;;;;6373637;27;20045;-78
2021/01/19 03:28:10;;;;;;;5.55;3.80;;;-2.70;94.80;;;;;;6373023;27;20019;-76
2021/01/19 03:31:11;;;;;;;4.65;3.13;;;-2.80;99.90;;;;;;6373438;27;20034;-75
2021/01/19 03:34:11;;;;;;;5.15;3.67;;;-2.90;93.10;;;;;;6373726;27;20015;-75
2021/01/19 03:37:12;;;;;;;4.90;3.13;;;-0.70;94.60;;;;;;6373468;27;20045;-75
2021/01/19 03:40:13;;;;;;;6.93;3.00;;;-2.80;93.10;;;;;;6373613;27;20102;-77
2021/01/19 03:43:14;;;;;;;6.32;4.15;;;;;;;;;;6373366;27;20031;-75
2021/01/19 03:46:15;;;;;;;4.10;3.17;;;-2.50;91.50;;;;;;6373102;27;20077;-75
2021/01/19 03:49:15;;;;;;;4.03;3.30;;;-2.60;93.40;;;;;;6373475;27;20098;-74
2021/01/19 03:52:16;;;;;;;7.05;3.22;;;-2.60;93.60;;;;;;6373013;27;20045;-75
2021/01/19 03:55:17;;;;;;;5.72;3.50;;;-2.60;93.20;;;;;;6373010;27;20030;-75
2021/01/19 03:58:17;;;;;;;12.35;6.60;;;-2.60;93.60;;;;;;6372896;27;20571;-77
2021/01/19 04:01:18;;;;;;;4.65;3.45;;;;;;;;;;6372929;27;20027;-75
2021/01/19 04:04:19;;;;;;;27.35;12.32;;;-2.70;98.70;;;;;;6372523;27;20057;-75
2021/01/19 04:07:20;;;;;;;7.07;4.53;;;-2.60;94.60;;;;;;6373010;27;20023;-76
2021/01/19 04:10:20;;;;;;;7.97;4.78;;;-0.80;94.10;;;;;;6372761;27;20453;-75
2021/01/19 04:13:21;;;;;;;17.90;6.82;;;-1.40;94.10;;;;;;6372642;27;20034;-76
2021/01/19 04:16:21;;;;;;;10.63;5.05;;;-3.00;93.40;;;;;;6372859;27;20063;-76
2021/01/19 04:19:22;;;;;;;5.72;4.20;;;-2.60;94.10;;;;;;6372626;28;20455;-77
2021/01/19 04:22:24;;;;;;;5.60;3.72;;;-2.80;99.90;;;;;;6372676;28;20098;-75
2021/01/19 04:25:25;;;;;;;4.03;3.42;;;-1.10;94.60;;;;;;6372516;27;20019;-75
2021/01/19 04:28:26;;;;;;;10.27;3.88;;;-2.70;95.30;;;;;;6372734;27;20453;-75
2021/01/19 04:31:26;;;;;;;5.90;3.83;;;-2.40;94.80;;;;;;6372418;27;20043;-77
2021/01/19 04:34:27;;;;;;;7.38;3.78;;;-1.40;94.20;;;;;;6372732;27;20509;-76
2021/01/19 04:37:28;;;;;;;6.93;3.97;;;;;;;;;;6372620;28;20079;-74
2021/01/19 04:40:28;;;;;;;9.60;4.45;;;-2.50;97.70;;;;;;6376233;27;20016;-77
2021/01/19 04:43:29;;;;;;;7.60;3.83;;;-2.50;93.20;;;;;;6377537;27;20097;-75
2021/01/19 04:46:29;;;;;;;7.65;3.83;;;-0.60;93.30;;;;;;6359545;27;20019;-75
2021/01/19 04:49:30;;;;;;;7.03;3.97;;;-2.60;93.50;;;;;;6359392;27;20084;-75
2021/01/19 04:52:32;;;;;;;8.13;4.72;;;-2.70;92.90;;;;;;6358852;27;20039;-75
2021/01/19 04:55:36;;;;;;;9.00;3.70;;;-2.70;93.30;;;;;;6359342;27;20011;-75
2021/01/19 04:58:37;;;;;;;8.38;4.22;;;-1.30;94.20;;;;;;6377125;27;20029;-75
2021/01/19 05:01:53;;;;;;;12.43;6.35;;;-2.00;93.20;;;;;;6342083;27;20027;-76
2021/01/19 05:05:06;;;;;;;5.13;3.97;;;-1.20;94.00;;;;;;6377128;27;20448;-75
2021/01/19 05:08:07;;;;;;;8.32;3.97;;;;;;;;;;6342906;27;20019;-76
2021/01/19 05:11:07;;;;;;;5.32;3.65;;;-2.60;97.90;;;;;;6376842;27;20019;-75
2021/01/19 05:14:08;;;;;;;5.75;3.97;;;-2.60;93.40;;;;;;6341954;27;20526;-76
2021/01/19 05:17:08;;;;;;;7.20;3.90;;;-1.40;93.40;;;;;;6341634;27;20031;-76
2021/01/19 05:20:10;;;;;;;6.25;3.70;;;-1.60;94.10;;;;;;6376618;27;20029;-76
2021/01/19 05:23:21;;;;;;;9.38;3.90;;;-2.60;93.10;;;;;;6358184;27;20020;-75
2021/01/19 05:26:22;;;;;;;5.78;3.42;;;-2.40;93.60;;;;;;6376439;27;20027;-75
2021/01/19 05:29:23;;;;;;;6.32;3.55;;;-1.70;94.00;;;;;;6376549;27;20088;-75
2021/01/19 05:32:34;;;;;;;7.95;3.50;;;-2.30;93.50;;;;;;6376391;27;20038;-75
2021/01/19 05:35:35;;;;;;;5.40;3.75;;;-1.90;93.80;;;;;;6376567;27;20449;-74
2021/01/19 05:38:44;;;;;;;5.35;3.60;;;-2.60;93.20;;;;;;6376492;27;20030;-75
2021/01/19 05:41:49;;;;;;;7.15;4.25;;;-0.80;94.20;;;;;;6358345;27;20022;-76
2021/01/19 05:44:50;;;;;;;4.78;3.92;;;-2.50;92.50;;;;;;6376208;27;20472;-75
2021/01/19 05:47:50;;;;;;;9.45;4.90;;;-1.10;93.20;;;;;;6341067;27;20019;-75
2021/01/19 05:50:51;;;;;;;9.32;5.68;;;-0.70;93.90;;;;;;6356614;27;20031;-76
2021/01/19 05:53:51;;;;;;;5.05;3.55;;;-0.90;93.60;;;;;;6340761;27;20035;-75
2021/01/19 05:57:01;;;;;;;7.85;3.85;;;-0.70;94.60;;;;;;6357895;27;20019;-76
2021/01/19 06:00:06;;;;;;;5.25;3.75;;;-2.60;99.90;;;;;;6376266;27;20388;-75
2021/01/19 06:03:16;;;;;;;5.53;3.70;;;-2.50;93.20;;;;;;6375854;27;20066;-75
2021/01/19 06:06:17;;;;;;;6.60;4.20;;;-0.40;94.40;;;;;;6376023;27;20400;-75
2021/01/19 06:09:17;;;;;;;7.05;4.07;;;-2.60;93.00;;;;;;6340360;27;20030;-75
2021/01/19 06:12:19;;;;;;;7.55;4.68;;;;;;;;;;6340274;27;20041;-76
2021/01/19 06:15:29;;;;;;;6.72;4.93;;;-2.60;99.90;;;;;;6375563;27;20125;-76
2021/01/19 06:18:36;;;;;;;7.20;4.32;;;-1.50;93.40;;;;;;6375390;27;20101;-75
2021/01/19 06:21:37;;;;;;;5.80;4.68;;;-1.00;94.40;;;;;;6375469;27;20030;-75
2021/01/19 06:24:44;;;;;;;12.15;4.57;;;-1.90;93.90;;;;;;6375342;27;20061;-75
2021/01/19 06:27:44;;;;;;;5.60;4.57;;;-2.80;94.40;;;;;;6375447;27;20514;-76
2021/01/19 06:30:45;;;;;;;6.85;4.07;;;-2.60;99.90;;;;;;6356755;27;20042;-77
2021/01/19 06:33:47;;;;;;;5.80;3.65;;;-2.70;93.50;;;;;;6357110;27;20022;-75
2021/01/19 06:36:47;;;;;;;5.63;3.85;;;-2.70;94.10;;;;;;6356825;27;20027;-75
2021/01/19 06:39:48;;;;;;;7.60;4.65;;;-2.90;93.50;;;;;;6375265;27;20538;-75
2021/01/19 06:42:56;;;;;;;6.60;4.45;;;-0.80;95.10;;;;;;6339610;27;20034;-76
2021/01/19 06:45:57;;;;;;;8.48;5.05;;;;;;;;;;6375119;27;20027;-75
2021/01/19 06:48:58;;;;;;;6.78;4.80;;;-2.80;98.30;;;;;;6356665;27;20023;-75
2021/01/19 06:52:09;;;;;;;10.07;4.32;;;-0.90;94.70;;;;;;6339482;27;20469;-75
2021/01/19 06:55:28;;;;;;;11.15;5.00;;;-2.60;93.20;;;;;;6374848;27;20072;-76
2021/01/19 06:58:47;;;;;;;10.15;4.93;;;-1.20;94.90;;;;;;6340092;27;20026;-75
2021/01/19 07:01:48;;;;;;;14.85;6.10;;;-2.60;93.70;;;;;;6374559;27;20027;-77
2021/01/19 07:04:48;;;;;;;7.45;5.10;;;-2.80;94.20;;;;;;6339042;27;20461;-75
2021/01/19 07:08:20;;;;;;;7.07;4.93;;;-2.50;94.80;;;;;;6338815;27;20031;-75
2021/01/19 07:12:02;;;;;;;11.98;6.63;;;-2.60;93.60;;;;;;6374308;27;20030;-74
2021/01/19 07:15:04;;;;;;;8.63;5.65;;;-2.70;93.20;;;;;;6324142;27;20484;-76
2021/01/19 07:18:13;;;;;;;7.68;4.30;;;-2.60;94.90;;;;;;6374092;27;20023;-76
2021/01/19 07:21:15;;;;;;;7.85;4.85;;;-2.60;94.70;;;;;;6374227;27;20019;-74
2021/01/19 07:24:17;;;;;;;10.60;5.13;;;-2.50;94.80;;;;;;6373864;27;20058;-76
2021/01/19 07:27:20;;;;;;;6.75;4.65;;;-2.20;99.90;;;;;;6373669;27;20078;-76
2021/01/19 07:30:22;;;;;;;6.95;4.45;;;-2.50;93.50;;;;;;6356044;27;20035;-74
2021/01/19 07:33:23;;;;;;;6.18;4.93;;;-2.40;95.00;;;;;;6338404;27;20039;-76
2021/01/19 07:36:26;;;;;;;7.88;4.95;;;-2.50;94.10;;;;;;6373654;27;20042;-75
2021/01/19 07:39:30;;;;;;;9.65;4.50;;;-0.90;94.30;;;;;;6373641;27;20228;-76
2021/01/19 07:42:32;;;;;;;9.00;4.60;;;;;;;;;;6373542;27;20442;-75
2021/01/19 07:45:33;;;;;;;9.43;4.60;;;-2.20;97.70;;;;;;6373395;27;20019;-76
2021/01/19 07:48:35;;;;;;;13.23;7.60;;;-2.00;93.70;;;;;;6373614;27;20277;-75
2021/01/19 07:51:46;;;;;;;6.40;4.60;;;-0.60;93.50;;;;;;6373248;27;20434;-76
2021/01/19 07:54:46;;;;;;;7.40;4.55;;;-1.80;93.60;;;;;;6373419;27;20652;-76
2021/01/19 07:57:52;;;;;;;7.43;4.00;;;-1.50;99.90;;;;;;6373233;27;20098;-77
2021/01/19 08:00:56;;;;;;;10.15;4.90;;;-0.70;98.00;;;;;;6354872;27;20023;-77
2021/01/19 08:04:10;;;;;;;9.35;4.50;;;-0.10;91.30;;;;;;6354745;27;20039;-77
2021/01/19 08:07:21;;;;;;;18.52;9.52;;;-0.30;87.70;;;;;;6373175;27;20471;-76
2021/01/19 08:10:25;;;;;;;7.65;4.10;;;-0.10;85.00;;;;;;6372968;27;20023;-76
2021/01/19 08:13:26;;;;;;;8.20;4.47;;;;;;;;;;6372601;27;20449;-76
2021/01/19 08:16:28;;;;;;;10.23;5.25;;;0.20;92.10;;;;;;6372858;27;20069;-75
2021/01/19 08:19:37;;;;;;;6.03;4.47;;;-0.10;87.30;;;;;;6373033;27;20030;-76
2021/01/19 08:22:37;;;;;;;8.05;4.95;;;-0.20;86.40;;;;;;6355700;27;20034;-76
2021/01/19 08:25:38;;;;;;;18.10;10.00;;;0.00;88.00;;;;;;6373148;27;20469;-75
2021/01/19 08:28:39;;;;;;;11.32;6.10;;;1.00;99.90;;;;;;6372926;28;20106;-75
2021/01/19 08:31:39;;;;;;;11.13;5.13;;;2.30;94.10;;;;;;6372712;28;20039;-76
2021/01/19 08:34:40;;;;;;;12.02;4.90;;;2.50;84.30;;;;;;6372966;27;20464;-76
2021/01/19 08:37:40;;;;;;;8.05;5.40;;;1.90;83.30;;;;;;6354424;28;20069;-77
2021/01/19 08:40:41;;;;;;;9.43;5.70;;;2.50;84.10;;;;;;6337533;28;20046;-76
2021/01/19 08:43:51;;;;;;;10.40;4.80;;;0.80;83.70;;;;;;6372615;27;20064;-77
2021/01/19 08:46:52;;;;;;;9.57;4.85;;;1.20;84.50;;;;;;6354449;28;20019;-76
2021/01/19 08:49:52;;;;;;;8.13;4.60;;;0.60;85.00;;;;;;6337203;28;20427;-77
2021/01/19 08:52:53;;;;;;;9.43;5.07;;;0.60;85.40;;;;;;6372659;27;20039;-76
2021/01/19 08:55:54;;;;;;;8.35;4.30;;;2.00;86.30;;;;;;6372444;28;20102;-76
2021/01/19 08:58:54;;;;;;;8.10;4.80;;;1.00;84.30;;;;;;6372432;27;20031;-78
2021/01/19 09:01:55;;;;;;;5.63;4.10;;;2.00;84.40;;;;;;6372638;27;20472;-77
2021/01/19 09:04:55;;;;;;;16.98;12.82;;;2.00;92.80;;;;;;6372182;28;20479;-79
2021/01/19 09:07:57;;;;;;;37.97;28.45;;;2.30;81.40;;;;;;6354125;28;20034;-79
2021/01/19 09:11:07;;;;;;;12.60;6.80;;;2.50;81.20;;;;;;6372162;28;20034;-77
2021/01/19 09:14:08;;;;;;;9.32;5.20;;;3.10;78.10;;;;;;6372582;28;20080;-79
2021/01/19 09:17:09;;;;;;;7.30;5.78;;;3.40;76.30;;;;;;6372293;27;20028;-76
2021/01/19 09:20:10;;;;;;;6.70;4.30;;;3.60;95.90;;;;;;6372442;28;20031;-79
2021/01/19 09:23:15;;;;;;;8.20;4.43;;;3.50;86.40;;;;;;6372219;27;20460;-79
2021/01/19 09:26:16;;;;;;;11.30;5.30;;;4.10;75.80;;;;;;6374084;27;20357;-77
2021/01/19 09:29:20;;;;;;;7.80;5.22;;;3.80;76.30;;;;;;6376826;27;20026;-76
2021/01/19 09:32:21;;;;;;;9.68;5.03;;;3.70;75.70;;;;;;6358948;27;20074;-76
2021/01/19 09:35:22;;;;;;;10.25;5.10;;;4.10;74.80;;;;;;6341301;27;20025;-77
2021/01/19 09:38:24;;;;;;;7.75;4.70;;;4.50;86.40;;;;;;6341066;27;20031;-77
2021/01/19 09:41:25;;;;;;;14.00;8.48;;;4.80;73.30;;;;;;6376583;27;20111;-76
2021/01/19 09:44:29;;;;;;;8.10;4.53;;;4.90;72.40;;;;;;6376369;27;20019;-78
2021/01/19 09:47:30;;;;;;;8.38;5.05;;;4.90;73.10;;;;;;6358337;27;20015;-76
2021/01/19 09:50:31;;;;;;;7.68;4.10;;;4.70;74.30;;;;;;6376597;27;20065;-77
2021/01/19 09:53:33;;;;;;;8.80;5.25;;;5.00;73.70;;;;;;6357716;27;20437;-76
2021/01/19 09:56:33;;;;;;;39.95;25.17;;;4.80;73.10;;;;;;6376174;27;20023;-77
2021/01/19 09:59:34;;;;;;;15.65;8.27;;;4.60;70.90;;;;;;6376037;27;20039;-77
2021/01/19 10:02:35;;;;;;;6.78;5.80;;;4.80;70.90;;;;;;6376015;27;20063;-76
2021/01/19 10:05:35;;;;;;;5.07;3.35;;;5.20;71.00;;;;;;6375662;27;20047;-76
2021/01/19 10:08:40;;;;;;;6.78;3.47;;;5.20;68.60;;;;;;6375954;27;20042;-77
2021/01/19 10:11:40;;;;;;;3.50;2.70;;;5.00;93.00;;;;;;6375646;27;20358;-76
2021/01/19 10:14:41;;;;;;;5.30;3.00;;;5.10;68.80;;;;;;6375925;27;20023;-77
2021/01/19 10:17:42;;;;;;;6.32;5.38;;;5.20;71.10;;;;;;6375687;27;20052;-76
2021/01/19 10:20:42;;;;;;;5.40;4.60;;;5.30;69.90;;;;;;6375647;27;20448;-78
2021/01/19 10:23:48;;;;;;;5.38;3.20;;;5.70;67.90;;;;;;6357137;27;20031;-78
2021/01/19 10:27:06;;;;;;;5.03;2.72;;;6.40;90.70;;;;;;6357490;27;20041;-76
2021/01/19 10:30:07;;;;;;;3.25;2.28;;;6.50;63.90;;;;;;6375256;27;20057;-78
2021/01/19 10:33:08;;;;;;;8.63;2.40;;;6.90;60.50;;;;;;6375355;27;20113;-77
2021/01/19 10:36:09;;;;;;;4.15;2.20;;;7.10;59.90;;;;;;6374764;27;20063;-77
2021/01/19 10:39:09;;;;;;;2.90;1.92;;;7.00;60.00;;;;;;6356930;27;20024;-77
2021/01/19 10:42:10;;;;;;;3.58;1.38;;;7.00;85.40;;;;;;6374962;27;20405;-76
2021/01/19 10:45:11;;;;;;;2.58;2.25;;;7.10;69.30;;;;;;6374949;27;20023;-77
2021/01/19 10:48:21;;;;;;;4.35;2.38;;;6.90;57.90;;;;;;6374760;27;20058;-77
2021/01/19 10:51:23;;;;;;;4.25;2.10;;;7.10;58.00;;;;;;6374584;27;20118;-78
2021/01/19 10:54:24;;;;;;;2.20;1.60;;;6.80;58.10;;;;;;6374611;27;20098;-77
2021/01/19 10:57:25;;;;;;;4.13;2.20;;;6.80;57.80;;;;;;6374467;27;20034;-77
2021/01/19 11:00:26;;;;;;;3.33;2.55;;;7.00;57.70;;;;;;6374676;27;20045;-77
2021/01/19 11:03:32;;;;;;;10.25;6.55;;;6.70;56.90;;;;;;6374489;27;20438;-77
2021/01/19 11:06:37;;;;;;;22.75;11.18;;;6.60;57.80;;;;;;6374499;27;20062;-77
2021/01/19 11:09:37;;;;;;;8.60;4.53;;;6.60;58.10;;;;;;6374027;27;20027;-77
2021/01/19 11:12:38;;;;;;;16.65;9.63;;;6.60;57.50;;;;;;6374384;27;20035;-77
2021/01/19 11:15:39;;;;;;;4.50;2.88;;;6.60;56.40;;;;;;6374148;27;20050;-77
2021/01/19 11:18:40;;;;;;;16.20;10.07;;;6.60;55.50;;;;;;6374300;27;20027;-79
2021/01/19 11:21:41;;;;;;;8.55;5.93;;;6.50;52.70;;;;;;6374123;27;20060;-77
2021/01/19 11:24:42;;;;;;;10.55;8.15;;;6.40;56.20;;;;;;6373886;27;20020;-76
2021/01/19 11:27:42;;;;;;;4.13;3.20;;;6.40;56.40;;;;;;6374078;27;20030;-78
2021/01/19 11:30:43;;;;;;;2.35;2.15;;;6.40;56.10;;;;;;6373820;27;20019;-77
2021/01/19 11:33:43;;;;;;;2.58;1.83;;;6.40;80.80;;;;;;6373910;27;20461;-77
2021/01/19 11:36:47;;;;;;;2.83;2.22;;;6.20;63.50;;;;;;6373668;27;20099;-77
2021/01/19 11:39:47;;;;;;;3.42;2.60;;;6.00;56.40;;;;;;6373838;27;20098;-78
2021/01/19 11:42:48;;;;;;;3.00;2.50;;;5.90;54.30;;;;;;6373552;27;20079;-78
2021/01/19 11:45:51;;;;;;;3.42;2.45;;;6.00;55.60;;;;;;6373514;27;20438;-77
2021/01/19 11:48:53;;;;;;;6.38;3.00;;;6.10;53.90;;;;;;6372688;27;20095;-77
2021/01/19 11:51:53;;;;;;;3.20;2.40;;;6.00;56.00;;;;;;6373429;27;20484;-78
2021/01/19 11:54:54;;;;;;;3.10;2.25;;;6.30;54.50;;;;;;6373583;27;20024;-76
2021/01/19 11:57:54;;;;;;;9.88;5.55;;;6.00;56.70;;;;;;6373316;27;20026;-77
2021/01/19 12:00:55;;;;;;;1.63;1.52;;;6.00;57.10;;;;;;6373540;27;20064;-76
2021/01/19 12:03:56;;;;;;;1.45;1.35;;;5.80;53.90;;;;;;6372939;27;20558;-76
2021/01/19 12:06:56;;;;;;;1.90;1.67;;;5.70;55.80;;;;;;6373234;27;20023;-76
2021/01/19 12:09:57;;;;;;;1.48;1.38;;;6.00;77.10;;;;;;6373025;27;20070;-77
2021/01/19 12:12:59;;;;;;;2.00;1.80;;;5.60;54.40;;;;;;6372952;27;20472;-77
2021/01/19 12:15:59;;;;;;;1.23;1.17;;;5.60;54.90;;;;;;6373113;27;20032;-78
2021/01/19 12:19:00;;;;;;;2.83;1.63;;;5.90;53.40;;;;;;6373327;27;20029;-76
2021/01/19 12:22:01;;;;;;;1.58;1.45;;;5.70;54.50;;;;;;6373040;28;20345;-76
2021/01/19 12:25:02;;;;;;;1.60;1.38;;;;;;;;;;6372825;27;20015;-77
2021/01/19 12:28:02;;;;;;;2.13;1.60;;;5.50;63.70;;;;;;6372797;28;20019;-76
2021/01/19 12:31:03;;;;;;;1.48;1.38;;;5.70;53.20;;;;;;6372674;28;20408;-77
2021/01/19 12:34:04;;;;;;;1.38;1.25;;;5.70;54.60;;;;;;6372784;28;20027;-78
2021/01/19 12:37:04;;;;;;;3.88;2.35;;;5.60;54.60;;;;;;6337344;28;20369;-78
2021/01/19 12:40:06;;;;;;;7.90;5.13;;;5.60;54.60;;;;;;6372859;28;20031;-79
2021/01/19 12:43:08;;;;;;;1.50;1.40;;;5.60;53.10;;;;;;6372576;28;20023;-76
2021/01/19 12:46:12;;;;;;;9.98;5.78;;;5.70;51.80;;;;;;6372872;28;20027;-77
2021/01/19 12:49:12;;;;;;;2.05;1.80;;;5.90;50.70;;;;;;6354412;28;20034;-77
2021/01/19 12:52:13;;;;;;;2.00;1.85;;;5.80;54.20;;;;;;6372400;27;20031;-76
2021/01/19 12:55:14;;;;;;;1.30;1.27;;;5.80;53.10;;;;;;6372719;28;20023;-77
2021/01/19 12:58:14;;;;;;;2.35;2.15;;;5.90;54.70;;;;;;6372427;27;20539;-76
2021/01/19 13:01:15;;;;;;;3.30;1.65;;;5.70;85.00;;;;;;6376098;27;20456;-76
2021/01/19 13:04:16;;;;;;;4.30;3.60;;;5.70;54.70;;;;;;6377099;27;20127;-78
2021/01/19 13:07:16;;;;;;;4.07;3.10;;;5.90;54.00;;;;;;6377559;27;20387;-76
2021/01/19 13:10:17;;;;;;;3.35;2.60;;;5.80;53.30;;;;;;6377240;27;20041;-77
2021/01/19 13:13:18;;;;;;;1.95;1.67;;;5.90;54.30;;;;;;6377384;27;20038;-77
2021/01/19 13:16:18;;;;;;;4.53;3.08;;;5.90;55.80;;;;;;6377163;27;20072;-77
2021/01/19 13:19:19;;;;;;;5.05;3.28;;;6.30;68.40;;;;;;6377003;27;20019;-76
2021/01/19 13:22:19;;;;;;;3.75;2.70;;;5.90;60.60;;;;;;6376992;27;20027;-77
2021/01/19 13:25:20;;;;;;;3.40;2.80;;;5.80;62.00;;;;;;6376915;27;20023;-77
2021/01/19 13:28:21;;;;;;;3.85;2.72;;;5.60;62.10;;;;;;6376794;27;20098;-76
2021/01/19 13:31:24;;;;;;;7.75;6.95;;;5.50;63.90;;;;;;6377037;27;20119;-76
2021/01/19 13:34:25;;;;;;;20.67;16.27;;;5.40;65.50;;;;;;6377039;27;20050;-77
2021/01/19 13:37:26;;;;;;;3.90;3.42;;;5.10;92.30;;;;;;6376708;27;20046;-77
2021/01/19 13:40:26;;;;;;;5.85;3.97;;;5.10;70.30;;;;;;6376528;27;20027;-77
2021/01/19 13:43:27;;;;;;;5.07;4.53;;;4.70;73.40;;;;;;6377233;27;20102;-77
2021/01/19 13:46:27;;;;;;;3.30;2.58;;;4.90;72.20;;;;;;6376703;27;20023;-76
2021/01/19 13:49:28;;;;;;;4.13;2.40;;;4.50;74.10;;;;;;6378004;27;20064;-78
2021/01/19 13:52:28;;;;;;;4.07;2.55;;;4.00;96.40;;;;;;6376128;27;20035;-78
2021/01/19 13:55:29;;;;;;;5.93;4.28;;;4.80;87.90;;;;;;6376381;27;20036;-77
2021/01/19 13:58:30;;;;;;;14.85;10.52;;;4.20;76.30;;;;;;6376084;27;20076;-77
2021/01/19 14:01:31;;;;;;;2.92;2.00;;;4.00;75.00;;;;;;6380054;27;20476;-76
2021/01/19 14:04:31;;;;;;;7.75;6.55;;;4.60;73.20;;;;;;6375709;27;20039;-76
2021/01/19 14:07:32;;;;;;;4.85;2.97;;;4.60;72.90;;;;;;6375907;27;20369;-76
2021/01/19 14:10:33;;;;;;;8.30;7.25;;;4.40;72.30;;;;;;6375578;27;20031;-76
2021/01/19 14:13:33;;;;;;;9.48;7.10;;;4.20;88.30;;;;;;6374892;27;20035;-77
2021/01/19 14:16:34;;;;;;;5.15;4.25;;;4.40;71.40;;;;;;6375962;27;20512;-76
2021/01/19 14:19:34;;;;;;;2.25;2.05;;;4.40;71.00;;;;;;6375858;27;20027;-76
2021/01/19 14:22:35;;;;;;;2.70;2.28;;;4.60;70.60;;;;;;6375779;27;20026;-78
2021/01/19 14:25:35;;;;;;;3.55;2.78;;;4.80;73.20;;;;;;6375530;27;20019;-77
2021/01/19 14:28:36;;;;;;;9.45;5.35;;;4.40;95.40;;;;;;6375566;27;20023;-77
2021/01/19 14:31:37;;;;;;;4.30;2.90;;;4.60;87.60;;;;;;6375187;27;20031;-77
2021/01/19 14:34:38;;;;;;;5.20;2.85;;;4.40;78.40;;;;;;6375414;27;20016;-78
2021/01/19 14:37:39;;;;;;;4.13;3.30;;;4.30;78.60;;;;;;6375122;27;20087;-76
2021/01/19 14:40:40;;;;;;;4.32;2.63;;;4.30;80.70;;;;;;6375204;27;20476;-76
2021/01/19 14:43:41;;;;;;;3.25;2.92;;;4.00;77.60;;;;;;6375145;27;20026;-77
2021/01/19 14:46:43;;;;;;;2.13;1.93;;;4.60;75.80;;;;;;6374852;27;20019;-79
2021/01/19 14:49:43;;;;;;;3.78;2.80;;;4.40;78.10;;;;;;6375009;27;20019;-76
2021/01/19 14:52:48;;;;;;;2.42;2.22;;;3.90;75.10;;;;;;6374891;27;20035;-76
2021/01/19 14:55:48;;;;;;;3.10;2.63;;;3.80;74.90;;;;;;6374930;27;20424;-76
2021/01/19 14:58:49;;;;;;;10.27;7.88;;;4.00;78.20;;;;;;6374624;27;20022;-78
2021/01/19 15:01:50;;;;;;;5.65;4.20;;;4.00;81.30;;;;;;6374514;27;20075;-78
2021/01/19 15:04:50;;;;;;;3.00;2.42;;;3.70;98.70;;;;;;6374314;27;20043;-77
2021/01/19 15:07:55;;;;;;;4.80;3.50;;;3.60;93.20;;;;;;6374514;27;20023;-77
2021/01/19 15:10:56;;;;;;;3.50;2.97;;;3.70;80.70;;;;;;6374452;27;20110;-76
2021/01/19 15:13:56;;;;;;;3.90;2.50;;;4.00;79.90;;;;;;6374189;27;20041;-77
2021/01/19 15:16:58;;;;;;;4.45;3.20;;;3.90;80.20;;;;;;6374428;27;20365;-76
2021/01/19 15:19:58;;;;;;;4.97;2.90;;;3.70;99.10;;;;;;6374210;27;20055;-76
2021/01/19 15:22:59;;;;;;;4.90;3.50;;;3.80;91.60;;;;;;6374102;27;20023;-78
2021/01/19 15:26:00;;;;;;;5.70;3.50;;;4.30;82.10;;;;;;6374241;27;20031;-76
2021/01/19 15:29:00;;;;;;;3.92;3.03;;;4.00;79.50;;;;;;6373898;27;20025;-77
2021/01/19 15:32:01;;;;;;;5.53;2.92;;;4.00;80.90;;;;;;6373674;27;20111;-77
2021/01/19 15:35:02;;;;;;;8.40;5.95;;;3.40;81.80;;;;;;6373691;27;20023;-76
2021/01/19 15:38:02;;;;;;;9.13;5.40;;;3.40;83.10;;;;;;6373835;27;20034;-78
2021/01/19 15:41:03;;;;;;;3.90;3.13;;;3.90;82.20;;;;;;6355249;27;20068;-76
2021/01/19 15:44:04;;;;;;;12.05;7.03;;;3.40;83.70;;;;;;6373689;27;20333;-76
2021/01/19 15:47:04;;;;;;;3.33;2.92;;;3.30;83.80;;;;;;6373348;27;20019;-77
2021/01/19 15:50:08;;;;;;;9.63;5.65;;;4.20;83.00;;;;;;6355212;27;20027;-76
2021/01/19 15:53:08;;;;;;;21.40;11.23;;;3.20;84.50;;;;;;6373195;27;20110;-76
2021/01/19 15:56:09;;;;;;;5.35;3.40;;;3.30;99.50;;;;;;6373605;27;20063;-76